Millmont, Pennsylvania
Current Conditions -  °F | °C
As of 2:53 PM on Saturday 25 Oct 2014 (Local Time) from KSEG Reporting Station
Clear Clear  
Wind Chill: 70°   Ceiling: Unl
Heat Index: 70°   Visibility: 10mi
Dew Point: 45°   Wind: 9mph
Humidity: 41%   Direction: 220°SW
Pressure: 29.72"   Gusts: NA
Location:  40.89°N, 77.14°W
Report Text: KSEG 251853Z AUTO 22008KT 190V260 10SM CLR 21/07 A2972 RMK AO2 SLP065 T02110072
Loading
Personal Weather Stations






























Interactive Weather Map
Tropical Storm Tracking
New forecast layout! Learn more

10-Day Weather Forecast

Advertisements
Track Severe Weather on mobile